Terminal Aerodrome Forecast
Issued by NWS

Home | Current Version | Previous Version | Text Only | Print | Product List | Glossary Off
Versions: 1 2 3 4 5 6 7 8 9 10 11 12 13 14 15 16 17

000
FTUS43 KTOP 222325
TAFFOE
TAF
KFOE 222325Z 2300/2324 15012KT P6SM SCT060 SCT250
     FM230400 15008KT P6SM BKN250 WS010/18035KT
     FM231400 17013KT P6SM VCTS SCT023 BKN035CB
     FM231800 16014KT P6SM VCTS BKN020CB=

USA.gov is the U.S. government's official web portal to all federal, state and local government web resources and services.